Terminal Aerodrome Forecast
Issued by NWS

Home | Current Version | Previous Version | Graphics & Text | Print | Product List | Glossary On
Versions: 1 2 3 4 5 6 7 8 9 10 11 12 13 14 15 16
000
FTUS43 KGRB 150500
TAFATW
TAF
KATW 150520Z 1506/1606 34009KT P6SM FEW050
     FM151500 32009G17KT P6SM BKN045
     FM152100 27008G16KT P6SM SCT060
     FM160200 VRB03KT P6SM SCT060 BKN150=

USA.gov is the U.S. government's official web portal to all federal, state and local government web resources and services.